createdAt,value
2018-11-02T00:00:20.276Z,9.99
2018-11-02T00:05:19.849Z,9.99
2018-11-02T00:10:20.327Z,9.99
2018-11-02T00:15:19.911Z,9.99
2018-11-02T00:20:20.187Z,9.99
2018-11-02T00:25:19.656Z,10.09
2018-11-02T00:30:19.917Z,10.09
2018-11-02T00:35:20.148Z,9.99
2018-11-02T00:40:19.623Z,10.09
2018-11-02T00:45:20.252Z,9.99
2018-11-02T00:50:19.547Z,10.09
2018-11-02T00:55:20.069Z,10.09
2018-11-02T01:00:20.285Z,9.99
2018-11-02T01:05:19.579Z,9.89
2018-11-02T01:10:20.051Z,9.79
2018-11-02T01:15:19.715Z,9.79
2018-11-02T01:20:20.000Z,9.69
2018-11-02T01:25:20.431Z,9.69
2018-11-02T01:30:19.637Z,9.69
2018-11-02T01:35:19.903Z,9.69
2018-11-02T01:40:20.445Z,9.79
2018-11-02T01:45:20.398Z,9.79
2018-11-02T01:50:20.263Z,9.79
2018-11-02T01:55:19.767Z,9.79
2018-11-02T02:00:20.042Z,9.79
2018-11-02T02:05:20.248Z,9.69
2018-11-02T02:10:19.751Z,9.69
2018-11-02T02:15:20.327Z,9.69
2018-11-02T02:20:19.622Z,9.69
2018-11-02T02:25:20.056Z,9.69
2018-11-02T02:30:20.252Z,9.69
2018-11-02T02:35:19.525Z,9.79
2018-11-02T02:40:21.044Z,9.79
2018-11-02T02:45:19.666Z,9.79
2018-11-02T02:50:19.929Z,9.79
2018-11-02T02:55:20.453Z,9.79
2018-11-02T03:00:19.710Z,9.79
2018-11-02T03:05:19.984Z,9.89
2018-11-02T03:10:20.783Z,9.89
2018-11-02T03:15:20.050Z,9.89
2018-11-02T03:20:20.365Z,9.89
2018-11-02T03:25:19.849Z,9.89
2018-11-02T03:30:20.098Z,9.89
2018-11-02T03:35:20.378Z,9.89
2018-11-02T03:40:19.876Z,9.89
2018-11-02T03:45:19.451Z,9.79
2018-11-02T03:50:19.793Z,9.79
2018-11-02T03:55:20.265Z,9.79
2018-11-02T04:00:19.515Z,9.79
2018-11-02T04:05:19.858Z,9.69
2018-11-02T04:10:20.301Z,9.69
2018-11-02T04:15:19.903Z,9.69
2018-11-02T04:20:20.189Z,9.69
2018-11-02T04:25:19.688Z,9.69
2018-11-02T04:30:19.887Z,9.69
2018-11-02T04:35:20.166Z,9.69
2018-11-02T04:40:19.618Z,9.69
2018-11-02T04:45:20.221Z,9.69
2018-11-02T04:50:19.524Z,9.69
2018-11-02T04:55:20.135Z,9.59
2018-11-02T05:00:20.271Z,9.59
2018-11-02T05:05:19.961Z,9.59
2018-11-02T05:10:20.036Z,9.59
2018-11-02T05:15:19.652Z,9.59
2018-11-02T05:20:19.961Z,9.59
2018-11-02T05:25:20.410Z,9.49
2018-11-02T05:30:19.681Z,9.59
2018-11-02T05:35:20.744Z,9.49
2018-11-02T05:40:20.377Z,9.49
2018-11-02T05:45:20.004Z,9.49
2018-11-02T05:50:20.246Z,9.49
2018-11-02T05:55:19.758Z,9.49
2018-11-02T06:00:20.001Z,9.39
2018-11-02T06:05:21.703Z,9.39
2018-11-02T06:10:19.768Z,9.39
2018-11-02T06:15:20.351Z,9.39
2018-11-02T06:20:19.651Z,9.39
2018-11-02T06:25:20.142Z,9.29
2018-11-02T06:30:20.444Z,9.39
2018-11-02T06:35:20.628Z,9.29
2018-11-02T06:40:20.120Z,9.29
2018-11-02T06:45:20.028Z,9.29
2018-11-02T06:50:20.052Z,9.29
2018-11-02T06:55:20.530Z,9.29
2018-11-02T07:00:20.173Z,9.29
2018-11-02T07:05:20.037Z,9.29
2018-11-02T07:10:20.474Z,9.29
2018-11-02T07:15:20.064Z,9.19
2018-11-02T07:20:20.381Z,9.29
2018-11-02T07:25:20.417Z,9.19
2018-11-02T07:30:20.099Z,9.19
2018-11-02T07:35:20.381Z,9.19
2018-11-02T07:40:19.853Z,9.19
2018-11-02T07:45:19.518Z,9.19
2018-11-02T07:50:19.751Z,9.19
2018-11-02T07:55:20.232Z,9.29
2018-11-02T08:00:19.464Z,9.29
2018-11-02T08:05:19.789Z,9.29
2018-11-02T08:10:20.282Z,9.19
2018-11-02T08:15:20.105Z,9.29
2018-11-02T08:20:20.201Z,9.29
2018-11-02T08:25:19.747Z,9.39
2018-11-02T08:30:19.836Z,9.49
2018-11-02T08:35:20.808Z,9.59
2018-11-02T08:40:19.614Z,9.79
2018-11-02T08:45:20.182Z,9.89
2018-11-02T08:50:19.513Z,10.09
2018-11-02T08:55:20.988Z,10.19
2018-11-02T09:00:20.776Z,10.19
2018-11-02T09:05:19.503Z,10.09
2018-11-02T09:10:19.986Z,10.09
2018-11-02T09:15:19.547Z,10.09
2018-11-02T09:20:19.863Z,10.29
2018-11-02T09:25:20.319Z,10.19
2018-11-02T09:30:19.560Z,10.19
2018-11-02T09:35:19.838Z,10.09
2018-11-02T09:40:20.594Z,9.99
2018-11-02T09:45:19.910Z,9.89
2018-11-02T09:50:20.181Z,9.99
2018-11-02T09:55:19.725Z,9.99
2018-11-02T10:00:19.917Z,9.99
2018-11-02T10:05:20.174Z,10.19
2018-11-02T10:10:19.654Z,10.49
2018-11-02T10:15:20.213Z,10.68
2018-11-02T10:20:19.513Z,11.08
2018-11-02T10:25:20.001Z,11.08
2018-11-02T10:30:20.168Z,11.38
2018-11-02T10:35:19.708Z,11.68
2018-11-02T10:40:19.959Z,11.78
2018-11-02T10:45:19.696Z,11.78
2018-11-02T10:50:19.907Z,11.88
2018-11-02T10:55:20.959Z,12.08
2018-11-02T11:00:19.549Z,12.28
2018-11-02T11:05:20.120Z,12.38
2018-11-02T11:10:20.382Z,12.48
2018-11-02T11:15:19.919Z,12.48
2018-11-02T11:20:20.224Z,12.68
2018-11-02T11:25:19.694Z,12.68
2018-11-02T11:30:19.935Z,12.54
2018-11-02T11:35:20.271Z,12.35
2018-11-02T11:40:19.743Z,12.05
2018-11-02T11:45:20.289Z,12.08
2018-11-02T11:50:19.617Z,12.08
2018-11-02T11:55:20.139Z,12.02
2018-11-02T12:00:20.318Z,12.18
2018-11-02T12:05:19.629Z,11.73
2018-11-02T12:10:20.429Z,11.35
2018-11-02T12:15:19.676Z,11.46
2018-11-02T12:20:19.940Z,11.51
2018-11-02T12:25:20.474Z,11.36
2018-11-02T12:30:19.698Z,11.37
2018-11-02T12:35:19.998Z,11.75
2018-11-02T12:40:20.481Z,11.74
2018-11-02T12:45:20.091Z,11.76
2018-11-02T12:50:20.931Z,11.55
2018-11-02T12:55:19.894Z,11.58
2018-11-02T13:00:20.729Z,11.45
2018-11-02T13:05:20.438Z,11.45
2018-11-02T13:10:19.913Z,11.26
2018-11-02T13:15:19.542Z,11.00
2018-11-02T13:20:20.390Z,10.81
2018-11-02T13:25:20.307Z,10.84
2018-11-02T13:30:21.003Z,10.98
2018-11-02T13:35:19.795Z,11.01
2018-11-02T13:40:20.157Z,10.80
2018-11-02T13:45:19.692Z,10.67
2018-11-02T13:50:20.432Z,10.88
2018-11-02T13:55:19.525Z,10.85
2018-11-02T14:00:19.820Z,10.95
2018-11-02T14:05:20.041Z,10.73
2018-11-02T14:10:19.543Z,10.97
2018-11-02T14:15:20.137Z,10.97
2018-11-02T14:20:19.402Z,10.94
2018-11-02T14:25:19.899Z,10.93
2018-11-02T14:30:20.170Z,10.75
2018-11-02T14:35:19.448Z,10.83
2018-11-02T14:40:19.939Z,10.84
2018-11-02T14:45:19.602Z,10.91
2018-11-02T14:50:20.993Z,10.99
2018-11-02T14:55:20.407Z,10.89
2018-11-02T15:00:19.589Z,10.97
2018-11-02T15:05:19.894Z,10.55
2018-11-02T15:10:20.372Z,10.58
2018-11-02T15:15:19.934Z,10.53
2018-11-02T15:20:20.311Z,10.46
2018-11-02T15:25:19.741Z,10.37
2018-11-02T15:30:19.946Z,9.65
2018-11-02T15:35:20.631Z,10.01
2018-11-02T15:40:19.679Z,10.13
2018-11-02T15:45:20.306Z,9.88
2018-11-02T15:50:19.614Z,9.67
2018-11-02T15:55:20.061Z,9.44
2018-11-02T16:00:20.624Z,9.67
2018-11-02T16:05:19.594Z,9.06
2018-11-02T16:10:20.047Z,8.76
2018-11-02T16:15:19.650Z,8.60
2018-11-02T16:20:19.945Z,8.57
2018-11-02T16:25:20.434Z,8.50
2018-11-02T16:30:19.667Z,8.86
2018-11-02T16:35:19.916Z,9.09
2018-11-02T16:40:20.389Z,8.94
2018-11-02T16:45:20.042Z,8.49
2018-11-02T16:50:20.593Z,8.09
2018-11-02T16:55:19.966Z,7.79
2018-11-02T17:00:20.209Z,7.69
2018-11-02T17:05:19.524Z,8.09
2018-11-02T17:10:19.953Z,7.59
2018-11-02T17:15:19.568Z,7.39
2018-11-02T17:20:19.819Z,7.59
2018-11-02T17:25:20.250Z,7.89
2018-11-02T17:30:19.549Z,7.19
2018-11-02T17:35:19.781Z,7.49
2018-11-02T17:40:20.271Z,7.39
2018-11-02T17:45:19.833Z,7.39
2018-11-02T17:50:20.076Z,7.69
2018-11-02T17:55:19.612Z,7.79
2018-11-02T18:00:19.768Z,7.29
2018-11-02T18:05:20.059Z,6.79
2018-11-02T18:10:19.574Z,6.79
2018-11-02T18:15:20.135Z,6.69
2018-11-02T18:20:19.443Z,6.89
2018-11-02T18:25:19.885Z,6.09
2018-11-02T18:30:20.063Z,6.29
2018-11-02T18:35:19.707Z,6.09
2018-11-02T18:40:19.888Z,6.29
2018-11-02T18:45:19.416Z,6.39
2018-11-02T18:50:19.697Z,6.69
2018-11-02T18:55:20.213Z,6.19
2018-11-02T19:00:19.436Z,5.59
2018-11-02T19:05:19.774Z,5.39
2018-11-02T19:10:20.193Z,5.39
2018-11-02T19:15:19.745Z,5.99
2018-11-02T19:20:20.438Z,6.29
2018-11-02T19:25:19.522Z,6.39
2018-11-02T19:30:19.731Z,5.79
2018-11-02T19:35:21.041Z,5.49
2018-11-02T19:40:19.491Z,5.69
2018-11-02T19:45:20.049Z,5.59
2018-11-02T19:50:19.469Z,4.99
2018-11-02T19:55:20.190Z,4.59
2018-11-02T20:00:20.691Z,4.69
2018-11-02T20:05:19.432Z,5.09
2018-11-02T20:10:19.880Z,5.29
2018-11-02T20:15:19.458Z,5.09
2018-11-02T20:20:19.753Z,5.39
2018-11-02T20:25:20.208Z,4.69
2018-11-02T20:30:19.425Z,4.59
2018-11-02T20:35:19.704Z,4.99
2018-11-02T20:40:20.187Z,4.59
2018-11-02T20:45:19.790Z,3.89
2018-11-02T20:50:20.073Z,3.99
2018-11-02T20:55:19.613Z,4.29
2018-11-02T21:00:19.800Z,5.09
2018-11-02T21:05:20.507Z,4.29
2018-11-02T21:10:19.625Z,3.79
2018-11-02T21:15:20.201Z,3.69
2018-11-02T21:20:19.803Z,4.59
2018-11-02T21:25:19.933Z,4.29
2018-11-02T21:30:20.198Z,4.29
2018-11-02T21:35:19.481Z,4.59
2018-11-02T21:40:19.933Z,4.49
2018-11-02T21:45:19.929Z,3.29
2018-11-02T21:50:20.072Z,3.29
2018-11-02T21:55:20.461Z,3.59
2018-11-02T22:00:19.679Z,4.19
2018-11-02T22:05:19.805Z,3.79
2018-11-02T22:10:20.356Z,3.59
2018-11-02T22:15:19.931Z,3.49
2018-11-02T22:20:20.175Z,3.29
2018-11-02T22:25:19.697Z,4.09
2018-11-02T22:30:19.895Z,3.69
2018-11-02T22:35:20.133Z,3.29
2018-11-02T22:40:19.666Z,3.19
2018-11-02T22:45:20.261Z,2.59
2018-11-02T22:50:19.611Z,2.59
2018-11-02T22:55:20.076Z,3.19
2018-11-02T23:00:20.303Z,3.69
2018-11-02T23:05:19.587Z,3.89
2018-11-02T23:10:20.054Z,3.09
2018-11-02T23:15:20.112Z,2.79
2018-11-02T23:20:19.966Z,2.59
2018-11-02T23:25:20.421Z,2.29
2018-11-02T23:30:19.697Z,2.39
2018-11-02T23:35:19.938Z,2.69
2018-11-02T23:40:20.374Z,2.89
2018-11-02T23:45:19.977Z,3.79
2018-11-02T23:50:20.212Z,2.99
2018-11-02T23:55:19.750Z,3.09
